createdAt,value
2024-05-09T00:00:42.635Z,92.4376
2024-05-09T00:01:43.811Z,92.3906
2024-05-09T00:02:44.679Z,92.3714
2024-05-09T00:03:46.072Z,91.8575
2024-05-09T00:04:47.088Z,91.6030
2024-05-09T00:05:47.792Z,91.6729
2024-05-09T00:06:48.457Z,91.7241
2024-05-09T00:07:49.009Z,91.4797
2024-05-09T00:08:49.670Z,91.6564
2024-05-09T00:09:51.355Z,91.8181
2024-05-09T00:10:52.078Z,92.1038
2024-05-09T00:11:52.775Z,92.1804
2024-05-09T00:12:53.258Z,92.1288
2024-05-09T00:13:53.969Z,92.2090
2024-05-09T00:14:54.490Z,92.0800
2024-05-09T00:15:56.359Z,92.0327
2024-05-09T00:16:57.170Z,92.0912
2024-05-09T00:17:57.997Z,92.3522
2024-05-09T00:18:58.936Z,92.3027
2024-05-09T00:19:59.703Z,92.2280
2024-05-09T00:21:00.594Z,92.2484
2024-05-09T00:22:01.483Z,92.1804
2024-05-09T00:23:02.221Z,92.2271
2024-05-09T00:24:03.478Z,92.3186
2024-05-09T00:25:04.194Z,92.5338
2024-05-09T00:26:04.877Z,92.5475
2024-05-09T00:27:05.775Z,92.4074
2024-05-09T00:28:09.055Z,92.5310
2024-05-09T00:29:10.055Z,92.6195
2024-05-09T00:30:14.509Z,92.4868
2024-05-09T00:31:18.346Z,92.3857
2024-05-09T00:32:19.480Z,92.6879
2024-05-09T00:33:20.855Z,92.7947
2024-05-09T00:34:22.148Z,92.6357
2024-05-09T00:35:23.623Z,92.8017
2024-05-09T00:36:24.765Z,92.9522
2024-05-09T00:37:25.841Z,93.0156
2024-05-09T00:38:26.989Z,93.0379
2024-05-09T00:39:28.163Z,93.0724
2024-05-09T00:40:35.766Z,93.0782
2024-05-09T00:41:36.639Z,93.1078
2024-05-09T00:42:38.805Z,93.0535
2024-05-09T00:43:40.062Z,93.2042
2024-05-09T00:44:41.318Z,93.3089
2024-05-09T00:45:42.607Z,93.4539
2024-05-09T00:46:43.905Z,93.3895
2024-05-09T00:47:45.201Z,93.2949
2024-05-09T00:48:46.552Z,93.3013
2024-05-09T00:49:47.664Z,93.3843
2024-05-09T00:50:48.854Z,93.3608
2024-05-09T00:51:49.824Z,93.3941
2024-05-09T00:52:50.892Z,93.3379
2024-05-09T00:53:51.856Z,93.3941
2024-05-09T00:54:52.736Z,93.4514
2024-05-09T00:55:53.581Z,93.4417
2024-05-09T00:56:54.258Z,93.2268
2024-05-09T00:57:55.082Z,93.0654
2024-05-09T00:58:55.841Z,93.0535
2024-05-09T00:59:56.906Z,93.1109
2024-05-09T01:00:57.508Z,93.0324
2024-05-09T01:01:58.295Z,92.9174
2024-05-09T01:02:59.132Z,92.8875
2024-05-09T01:03:59.834Z,92.7654
2024-05-09T01:05:00.562Z,92.8389
2024-05-09T01:06:01.178Z,92.9119
2024-05-09T01:07:01.811Z,92.9894
2024-05-09T01:08:02.453Z,92.9528
2024-05-09T01:09:03.026Z,92.8701
2024-05-09T01:10:05.578Z,92.6867
2024-05-09T01:11:07.881Z,92.3845
2024-05-09T01:12:08.606Z,92.4721
2024-05-09T01:13:09.158Z,92.3595
2024-05-09T01:14:09.616Z,92.3223
2024-05-09T01:15:10.028Z,92.3326
2024-05-09T01:16:10.431Z,92.1230
2024-05-09T01:17:10.867Z,92.2322
2024-05-09T01:18:12.408Z,92.2832
2024-05-09T01:19:14.390Z,92.3275
2024-05-09T01:20:20.216Z,92.2191
2024-05-09T01:21:21.526Z,92.2112
2024-05-09T01:22:21.816Z,91.9939
2024-05-09T01:23:22.131Z,91.9969
2024-05-09T01:24:22.517Z,91.8853
2024-05-09T01:25:22.818Z,91.7009
2024-05-09T01:26:23.053Z,91.8489
2024-05-09T01:27:23.596Z,91.9597
2024-05-09T01:28:23.847Z,91.8425
2024-05-09T01:29:24.233Z,91.9588
2024-05-09T01:30:31.836Z,91.9896
2024-05-09T01:31:31.165Z,91.8257
2024-05-09T01:32:31.627Z,91.9481
2024-05-09T01:33:33.273Z,91.7647
2024-05-09T01:34:33.960Z,91.8001
2024-05-09T01:35:34.286Z,91.7766
2024-05-09T01:36:34.682Z,91.7833
2024-05-09T01:37:34.833Z,91.9655
2024-05-09T01:38:35.263Z,92.0781
2024-05-09T01:39:35.730Z,91.9429
2024-05-09T01:40:38.930Z,91.7168
2024-05-09T01:41:40.860Z,91.6298
2024-05-09T01:42:41.076Z,91.5947
2024-05-09T01:43:41.887Z,91.4907
2024-05-09T01:44:42.136Z,91.7229
2024-05-09T01:45:42.415Z,91.6692
2024-05-09T01:46:42.698Z,91.6042
2024-05-09T01:47:43.159Z,91.7028
2024-05-09T01:48:44.558Z,91.6463
2024-05-09T01:49:44.989Z,91.7144
2024-05-09T01:50:45.494Z,91.5535
2024-05-09T01:51:46.023Z,91.4931
2024-05-09T01:52:46.277Z,91.6890
2024-05-09T01:53:46.505Z,91.5846
2024-05-09T01:54:46.697Z,91.5135
2024-05-09T01:55:46.979Z,91.5050
2024-05-09T01:56:47.337Z,91.6658
2024-05-09T01:57:47.599Z,91.6289
2024-05-09T01:58:47.781Z,91.6585
2024-05-09T01:59:48.008Z,91.8215
2024-05-09T02:00:48.319Z,91.8331
2024-05-09T02:01:56.632Z,91.7812
2024-05-09T02:02:54.946Z,91.4308
2024-05-09T02:03:55.412Z,91.4434
2024-05-09T02:04:56.158Z,91.4684
2024-05-09T02:05:56.517Z,91.6289
2024-05-09T02:06:57.132Z,91.7684
2024-05-09T02:07:57.392Z,91.8727
2024-05-09T02:08:57.546Z,91.6255
2024-05-09T02:09:58.110Z,91.6555
2024-05-09T02:10:58.532Z,91.5883
2024-05-09T02:11:59.086Z,91.6118
2024-05-09T02:12:59.334Z,91.7372
2024-05-09T02:13:59.700Z,91.6698
2024-05-09T02:14:59.934Z,91.6762
2024-05-09T02:16:00.217Z,91.4446
2024-05-09T02:17:00.556Z,91.6783
2024-05-09T02:18:01.121Z,91.6194
2024-05-09T02:19:01.739Z,91.6048
2024-05-09T02:20:02.115Z,91.5926
2024-05-09T02:21:02.720Z,91.6698
2024-05-09T02:22:02.950Z,91.4669
2024-05-09T02:23:03.305Z,91.4424
2024-05-09T02:24:03.627Z,91.4629
2024-05-09T02:25:03.841Z,91.4263
2024-05-09T02:26:04.497Z,91.4556
2024-05-09T02:27:04.741Z,91.5834
2024-05-09T02:28:05.080Z,91.1879
2024-05-09T02:29:05.393Z,91.3484
2024-05-09T02:30:15.150Z,91.3579
2024-05-09T02:31:13.510Z,91.5660
2024-05-09T02:32:14.104Z,91.7702
2024-05-09T02:33:15.002Z,91.4974
2024-05-09T02:34:16.310Z,91.5477
2024-05-09T02:35:16.604Z,91.7409
2024-05-09T02:36:16.771Z,91.7232
2024-05-09T02:37:16.937Z,91.6124
2024-05-09T02:38:18.221Z,91.6857
2024-05-09T02:39:18.438Z,91.4965
2024-05-09T02:40:25.665Z,91.4452
2024-05-09T02:41:25.977Z,91.5529
2024-05-09T02:42:27.204Z,91.6243
2024-05-09T02:43:27.464Z,91.5401
2024-05-09T02:44:27.763Z,91.7000
2024-05-09T02:45:28.065Z,91.7513
2024-05-09T02:46:28.287Z,91.7998
2024-05-09T02:47:28.808Z,91.5901
2024-05-09T02:48:29.149Z,91.7281
2024-05-09T02:49:29.573Z,91.8315
2024-05-09T02:50:37.036Z,91.8782
2024-05-09T02:51:36.306Z,91.9918
2024-05-09T02:52:36.596Z,92.0302
2024-05-09T02:53:36.903Z,91.9146
2024-05-09T02:54:37.241Z,91.9139
2024-05-09T02:55:37.533Z,91.9490
2024-05-09T02:56:37.991Z,91.9875
2024-05-09T02:57:38.413Z,92.1215
2024-05-09T02:58:38.795Z,91.9509
2024-05-09T02:59:39.078Z,92.0128
2024-05-09T03:00:41.666Z,92.1605
2024-05-09T03:01:45.743Z,92.0653
2024-05-09T03:02:46.164Z,92.0006
2024-05-09T03:03:46.559Z,92.1483
2024-05-09T03:04:47.024Z,92.0702
2024-05-09T03:05:47.495Z,91.9963
2024-05-09T03:06:47.945Z,92.0479
2024-05-09T03:07:48.124Z,92.3299
2024-05-09T03:08:48.420Z,92.2393
2024-05-09T03:09:48.606Z,92.2505
2024-05-09T03:10:49.097Z,92.4157
2024-05-09T03:11:49.510Z,92.2945
2024-05-09T03:12:49.814Z,92.3833
2024-05-09T03:13:50.024Z,92.4712
2024-05-09T03:14:50.297Z,92.3616
2024-05-09T03:15:50.722Z,92.3931
2024-05-09T03:16:51.066Z,92.3625
2024-05-09T03:17:51.696Z,92.5579
2024-05-09T03:18:52.075Z,92.2942
2024-05-09T03:19:52.413Z,92.2896
2024-05-09T03:20:52.766Z,92.2335
2024-05-09T03:21:52.943Z,92.1968
2024-05-09T03:22:56.323Z,92.4419
2024-05-09T03:23:57.513Z,92.3546
2024-05-09T03:24:57.731Z,92.3201
2024-05-09T03:25:58.057Z,92.2100
2024-05-09T03:26:58.441Z,92.0827
2024-05-09T03:27:58.686Z,92.1514
2024-05-09T03:28:58.969Z,91.9915
2024-05-09T03:29:59.157Z,92.0659
2024-05-09T03:30:59.321Z,92.1840
2024-05-09T03:31:59.732Z,92.2032
2024-05-09T03:33:00.341Z,92.2396
2024-05-09T03:34:00.827Z,92.1291
2024-05-09T03:35:01.087Z,91.9005
2024-05-09T03:36:01.249Z,91.9716
2024-05-09T03:37:01.531Z,91.9240
2024-05-09T03:38:01.777Z,92.0009
2024-05-09T03:39:02.097Z,92.0363
2024-05-09T03:40:02.875Z,92.0470
2024-05-09T03:41:03.271Z,91.9197
2024-05-09T03:42:03.612Z,91.8608
2024-05-09T03:43:03.830Z,92.0473
2024-05-09T03:44:04.083Z,92.0369
2024-05-09T03:45:04.328Z,92.2264
2024-05-09T03:46:04.515Z,92.3906
2024-05-09T03:47:04.785Z,92.1318
2024-05-09T03:48:05.522Z,92.0183
2024-05-09T03:49:05.893Z,92.0720
2024-05-09T03:50:11.962Z,91.9991
2024-05-09T03:51:12.509Z,92.0760
2024-05-09T03:52:12.809Z,92.1312
2024-05-09T03:53:13.184Z,92.1721
2024-05-09T03:54:13.528Z,92.1993
2024-05-09T03:55:13.725Z,92.2988
2024-05-09T03:56:14.020Z,92.3458
2024-05-09T03:57:14.213Z,92.2725
2024-05-09T03:58:14.564Z,92.1624
2024-05-09T03:59:14.896Z,92.2261
2024-05-09T04:00:21.950Z,92.1984
2024-05-09T04:01:21.414Z,92.3751
2024-05-09T04:02:21.811Z,92.4920
2024-05-09T04:03:22.565Z,92.3366
2024-05-09T04:04:22.959Z,92.3021
2024-05-09T04:05:23.192Z,92.2341
2024-05-09T04:06:23.418Z,92.2808
2024-05-09T04:07:23.631Z,92.0430
2024-05-09T04:08:23.901Z,92.2228
2024-05-09T04:09:24.166Z,92.2383
2024-05-09T04:10:31.181Z,92.1193
2024-05-09T04:11:30.467Z,92.0729
2024-05-09T04:12:30.844Z,91.9017
2024-05-09T04:13:31.020Z,92.0595
2024-05-09T04:14:31.319Z,91.9887
2024-05-09T04:15:31.866Z,92.0705
2024-05-09T04:16:32.344Z,92.2740
2024-05-09T04:17:33.006Z,92.3290
2024-05-09T04:18:33.451Z,91.8450
2024-05-09T04:19:33.722Z,91.7922
2024-05-09T04:20:39.007Z,91.8438
2024-05-09T04:21:40.760Z,92.0879
2024-05-09T04:22:52.957Z,92.0020
2024-05-09T04:23:53.162Z,91.9310
2024-05-09T04:24:53.295Z,91.6957
2024-05-09T04:26:05.285Z,91.8318
2024-05-09T04:27:05.389Z,91.8825
2024-05-09T04:28:17.367Z,91.5791
2024-05-09T04:29:17.494Z,91.6710
2024-05-09T04:30:26.221Z,91.7031
2024-05-09T04:31:24.540Z,91.7745
2024-05-09T04:32:25.467Z,91.6915
2024-05-09T04:33:25.802Z,91.5840
2024-05-09T04:34:26.121Z,91.6063
2024-05-09T04:35:26.372Z,91.8151
2024-05-09T04:36:26.568Z,91.6503
2024-05-09T04:37:26.670Z,91.4241
2024-05-09T04:38:26.672Z,91.2395
2024-05-09T04:39:26.817Z,91.3613
2024-05-09T04:40:33.396Z,91.6164
2024-05-09T04:41:34.028Z,91.5581
2024-05-09T04:42:34.175Z,91.7440
2024-05-09T04:43:34.337Z,91.7989
2024-05-09T04:44:34.607Z,91.6927
2024-05-09T04:45:35.072Z,91.5233
2024-05-09T04:46:35.479Z,91.4583
2024-05-09T04:47:35.861Z,91.6933
2024-05-09T04:48:36.221Z,91.5102
2024-05-09T04:49:37.504Z,91.3103
2024-05-09T04:50:39.307Z,91.4305
2024-05-09T04:51:40.356Z,91.5065
2024-05-09T04:52:40.510Z,91.1733
2024-05-09T04:53:40.936Z,91.3658
2024-05-09T04:54:41.258Z,91.4092
2024-05-09T04:55:41.438Z,91.4128
2024-05-09T04:56:41.562Z,91.4907
2024-05-09T04:57:41.754Z,91.4095
2024-05-09T04:58:42.128Z,91.3954
2024-05-09T04:59:42.284Z,91.5666
2024-05-09T05:00:42.613Z,91.7321
2024-05-09T05:01:42.779Z,91.8053
2024-05-09T05:02:43.229Z,91.6631
2024-05-09T05:03:43.596Z,91.5831
2024-05-09T05:04:43.985Z,91.5575
2024-05-09T05:05:45.441Z,91.4592
2024-05-09T05:06:46.348Z,91.4556
2024-05-09T05:07:46.504Z,91.3970
2024-05-09T05:08:46.718Z,91.5218
2024-05-09T05:09:46.847Z,91.4693
2024-05-09T05:10:47.710Z,91.7516
2024-05-09T05:11:48.619Z,91.6167
2024-05-09T05:12:48.763Z,91.7760
2024-05-09T05:13:48.852Z,91.7943
2024-05-09T05:14:49.511Z,91.5486
2024-05-09T05:15:50.536Z,91.5407
2024-05-09T05:16:50.568Z,91.5218
2024-05-09T05:18:02.753Z,91.5587
2024-05-09T05:19:02.946Z,91.6909
2024-05-09T05:20:04.707Z,91.5337
2024-05-09T05:21:05.032Z,91.5795
2024-05-09T05:22:05.129Z,91.6255
2024-05-09T05:23:05.205Z,91.6259
2024-05-09T05:24:05.285Z,91.8520
2024-05-09T05:25:05.361Z,91.6692
2024-05-09T05:26:17.309Z,91.5328
2024-05-09T05:27:17.330Z,91.7430
2024-05-09T05:28:29.270Z,91.5666
2024-05-09T05:29:29.398Z,91.6255
2024-05-09T05:30:34.443Z,91.4257
2024-05-09T05:31:36.467Z,91.6625
2024-05-09T05:32:36.583Z,91.7012
2024-05-09T05:33:36.944Z,91.4464
2024-05-09T05:34:37.044Z,91.4406
2024-05-09T05:35:37.196Z,91.6622
2024-05-09T05:36:37.299Z,91.7165
2024-05-09T05:37:37.374Z,91.8373
2024-05-09T05:38:37.523Z,91.8270
2024-05-09T05:39:37.532Z,91.9420
2024-05-09T05:40:38.764Z,91.8425
2024-05-09T05:41:40.077Z,91.5465
2024-05-09T05:42:40.131Z,91.7101
2024-05-09T05:43:40.315Z,91.4232
2024-05-09T05:44:40.452Z,91.3292
2024-05-09T05:45:40.562Z,91.5224
2024-05-09T05:46:41.659Z,91.4989
2024-05-09T05:47:42.139Z,91.3198
2024-05-09T05:48:42.495Z,91.3088
2024-05-09T05:49:42.683Z,91.2883
2024-05-09T05:50:42.855Z,91.3182
2024-05-09T05:51:43.176Z,91.3674
2024-05-09T05:52:43.440Z,91.3829
2024-05-09T05:53:43.555Z,91.3640
2024-05-09T05:54:43.705Z,91.5413
2024-05-09T05:55:43.890Z,91.5419
2024-05-09T05:56:44.141Z,91.6512
2024-05-09T05:57:44.367Z,91.4125
2024-05-09T05:58:44.575Z,91.4192
2024-05-09T05:59:44.800Z,91.2429
2024-05-09T06:00:45.044Z,91.2282
2024-05-09T06:01:45.472Z,91.3487
2024-05-09T06:02:45.868Z,91.6793
2024-05-09T06:03:47.335Z,91.7620
2024-05-09T06:04:47.646Z,91.5865
2024-05-09T06:05:47.866Z,91.5880
2024-05-09T06:06:48.115Z,91.4202
2024-05-09T06:07:49.287Z,91.5773
2024-05-09T06:08:49.388Z,91.6805
2024-05-09T06:09:50.652Z,91.5947
2024-05-09T06:10:50.805Z,91.6881
2024-05-09T06:11:52.151Z,91.4977
2024-05-09T06:12:52.130Z,91.2618
2024-05-09T06:13:52.236Z,91.0802
2024-05-09T06:14:52.407Z,91.1244
2024-05-09T06:15:52.454Z,91.4165
2024-05-09T06:16:54.102Z,91.4119
2024-05-09T06:17:55.752Z,91.2743
2024-05-09T06:18:56.567Z,91.5514
2024-05-09T06:19:56.615Z,91.4684
2024-05-09T06:20:56.851Z,90.9014
2024-05-09T06:21:56.919Z,90.8278
2024-05-09T06:22:56.926Z,90.5891
2024-05-09T06:23:56.984Z,90.3197
2024-05-09T06:25:08.814Z,90.3525
2024-05-09T06:26:20.716Z,90.0793
2024-05-09T06:27:32.577Z,90.1455
2024-05-09T06:28:32.560Z,90.0832
2024-05-09T06:29:44.384Z,89.8390
2024-05-09T06:30:44.341Z,89.6977
2024-05-09T06:31:59.495Z,89.6025
2024-05-09T06:33:00.366Z,89.1521
2024-05-09T06:34:12.536Z,88.9199
2024-05-09T06:35:12.602Z,88.9152
2024-05-09T06:36:13.521Z,89.3236
2024-05-09T06:37:25.362Z,88.6847
2024-05-09T06:38:37.268Z,88.7994
2024-05-09T06:39:37.183Z,88.4822
2024-05-09T06:40:49.034Z,87.7701
2024-05-09T06:42:00.823Z,88.4545
2024-05-09T06:43:12.682Z,88.3103
2024-05-09T06:44:12.695Z,87.9570
2024-05-09T06:45:12.716Z,88.1517
2024-05-09T06:46:24.525Z,87.9342
2024-05-09T06:47:36.534Z,87.9357
2024-05-09T06:48:36.767Z,87.9347
2024-05-09T06:49:36.815Z,87.9054
2024-05-09T06:50:38.347Z,88.0534
2024-05-09T06:51:39.594Z,87.7067
2024-05-09T06:52:41.517Z,87.5682
2024-05-09T06:53:41.486Z,87.5206
2024-05-09T06:54:41.577Z,87.1800
2024-05-09T06:55:41.428Z,87.1989
2024-05-09T06:56:53.211Z,87.0644
2024-05-09T06:58:04.938Z,87.4451
2024-05-09T06:59:16.743Z,87.4601
2024-05-09T07:00:35.599Z,87.3452
2024-05-09T07:01:35.287Z,86.3929
2024-05-09T07:02:47.066Z,87.1527
2024-05-09T07:03:47.135Z,87.9921
2024-05-09T07:04:47.241Z,87.7601
2024-05-09T07:05:48.569Z,87.1751
2024-05-09T07:06:50.937Z,86.6902
2024-05-09T07:07:50.923Z,86.3679
2024-05-09T07:08:52.448Z,86.1784
2024-05-09T07:09:52.626Z,86.5037
2024-05-09T07:10:52.784Z,86.7692
2024-05-09T07:11:52.984Z,86.9349
2024-05-09T07:12:53.234Z,86.5537
2024-05-09T07:13:53.207Z,86.4469
2024-05-09T07:14:53.583Z,86.5214
2024-05-09T07:15:53.516Z,86.5266
2024-05-09T07:17:05.404Z,86.6560
2024-05-09T07:18:05.497Z,86.3746
2024-05-09T07:19:05.686Z,86.4750
2024-05-09T07:20:08.963Z,86.7365
2024-05-09T07:21:09.366Z,86.6203
2024-05-09T07:22:21.156Z,86.6705
2024-05-09T07:23:32.905Z,87.1059
2024-05-09T07:24:44.778Z,86.5128
2024-05-09T07:25:56.587Z,86.7488
2024-05-09T07:27:08.266Z,86.8320
2024-05-09T07:28:19.960Z,87.0059
2024-05-09T07:29:32.989Z,86.3539
2024-05-09T07:30:35.171Z,85.9782
2024-05-09T07:31:35.215Z,85.9196
2024-05-09T07:32:47.096Z,85.8534
2024-05-09T07:33:47.148Z,85.9870
2024-05-09T07:34:47.192Z,86.0569
2024-05-09T07:35:58.933Z,85.6629
2024-05-09T07:37:10.643Z,85.2913
2024-05-09T07:38:22.512Z,85.1670
2024-05-09T07:39:22.670Z,85.6071
2024-05-09T07:40:36.644Z,85.9093
2024-05-09T07:41:37.486Z,85.7304
2024-05-09T07:42:37.541Z,86.0002
2024-05-09T07:43:50.276Z,86.5545
2024-05-09T07:44:51.277Z,86.2709
2024-05-09T07:46:48.234Z,86.0878
2024-05-09T07:48:14.696Z,85.6086
2024-05-09T07:49:45.087Z,85.7087
2024-05-09T07:53:08.679Z,84.9467
2024-05-09T07:53:33.658Z,84.6622
2024-05-09T07:53:47.320Z,85.0474
2024-05-09T07:54:49.818Z,85.5695
2024-05-09T07:55:51.072Z,85.5232
2024-05-09T07:56:51.221Z,84.7126
2024-05-09T07:57:51.609Z,84.9186
2024-05-09T07:58:52.172Z,85.5372
2024-05-09T07:59:52.294Z,85.2961
2024-05-09T08:00:52.379Z,85.6629
2024-05-09T08:01:52.464Z,84.8347
2024-05-09T08:02:52.730Z,84.1758
2024-05-09T08:03:53.090Z,84.3800
2024-05-09T08:04:53.295Z,84.0336
2024-05-09T08:05:54.453Z,83.8215
2024-05-09T08:06:54.568Z,83.3567
2024-05-09T08:07:55.583Z,83.7439
2024-05-09T08:09:11.116Z,83.2225
2024-05-09T08:10:15.471Z,83.9808
2024-05-09T08:11:18.933Z,83.9432
2024-05-09T08:12:30.847Z,83.5121
2024-05-09T08:13:42.585Z,82.7410
2024-05-09T08:14:56.198Z,83.4562
2024-05-09T08:16:07.972Z,83.0727
2024-05-09T08:17:19.800Z,82.9819
2024-05-09T08:18:31.883Z,82.3891
2024-05-09T08:19:32.006Z,83.1885
2024-05-09T08:20:43.727Z,83.4071
2024-05-09T08:21:55.540Z,83.0772
2024-05-09T08:23:07.336Z,83.3931
2024-05-09T08:24:19.128Z,83.9213
2024-05-09T08:25:30.916Z,84.0525
2024-05-09T08:26:42.682Z,83.7784
2024-05-09T08:27:54.452Z,83.6772
2024-05-09T08:28:54.505Z,83.8291
2024-05-09T08:31:17.970Z,83.3870
2024-05-09T08:32:29.938Z,84.0098
2024-05-09T08:33:31.236Z,84.7117
2024-05-09T08:34:31.216Z,84.4239
2024-05-09T08:35:31.293Z,84.0452
2024-05-09T08:36:43.163Z,83.8702
2024-05-09T08:37:43.278Z,83.7821
2024-05-09T08:38:43.386Z,84.1456
2024-05-09T08:39:43.369Z,84.3241
2024-05-09T08:40:43.433Z,84.1062
2024-05-09T08:41:44.359Z,84.5087
2024-05-09T08:42:56.166Z,83.8120
2024-05-09T08:44:07.884Z,83.8125
2024-05-09T08:45:19.617Z,84.0393
2024-05-09T08:46:31.361Z,84.1202
2024-05-09T08:47:31.787Z,83.5596
2024-05-09T08:48:33.095Z,83.0704
2024-05-09T08:49:33.263Z,82.9142
2024-05-09T08:50:38.535Z,82.2776
2024-05-09T08:51:41.058Z,82.5296
2024-05-09T08:52:41.093Z,82.1820
2024-05-09T08:53:41.052Z,82.5663
2024-05-09T08:54:52.846Z,82.3715
2024-05-09T08:56:04.670Z,82.3364
2024-05-09T08:57:16.523Z,82.0951
2024-05-09T08:58:16.797Z,81.8170
2024-05-09T08:59:16.831Z,81.9821
2024-05-09T09:00:35.948Z,82.4837
2024-05-09T09:01:34.398Z,82.8272
2024-05-09T09:02:34.694Z,82.3532
2024-05-09T09:03:34.815Z,81.1206
2024-05-09T09:04:34.955Z,80.8414
2024-05-09T09:05:46.750Z,81.0730
2024-05-09T09:06:59.767Z,81.9249
2024-05-09T09:08:00.294Z,81.8128
2024-05-09T09:09:12.302Z,81.7878
2024-05-09T09:10:29.884Z,82.4165
2024-05-09T09:11:31.614Z,81.7728
2024-05-09T09:12:31.620Z,82.5922
2024-05-09T09:13:43.437Z,82.6566
2024-05-09T09:14:55.183Z,82.3328
2024-05-09T09:16:07.045Z,81.7459
2024-05-09T09:17:07.003Z,81.8930
2024-05-09T09:18:19.272Z,81.6627
2024-05-09T09:19:19.432Z,81.7295
2024-05-09T09:20:26.269Z,81.7838
2024-05-09T09:21:25.286Z,81.7087
2024-05-09T09:22:38.094Z,81.2500
2024-05-09T09:23:38.037Z,80.8618
2024-05-09T09:24:49.895Z,81.9137
2024-05-09T09:26:01.751Z,81.3542
2024-05-09T09:27:13.606Z,80.8209
2024-05-09T09:28:25.427Z,81.4165
2024-05-09T09:29:37.211Z,81.0936
2024-05-09T09:30:48.973Z,81.2032
2024-05-09T09:32:00.701Z,80.4939
2024-05-09T09:33:12.550Z,80.6795
2024-05-09T09:34:24.642Z,80.2444
2024-05-09T09:35:24.556Z,79.9722
2024-05-09T09:36:36.292Z,79.8566
2024-05-09T09:37:47.984Z,79.7360
2024-05-09T09:38:59.758Z,79.9051
2024-05-09T09:40:13.311Z,79.9250
2024-05-09T09:41:13.609Z,80.0842
2024-05-09T09:42:25.299Z,80.1386
2024-05-09T09:43:37.110Z,80.3769
2024-05-09T09:44:57.794Z,80.4425
2024-05-09T09:45:54.712Z,80.8084
2024-05-09T09:47:07.120Z,80.4819
2024-05-09T09:48:07.036Z,79.5279
2024-05-09T09:49:19.826Z,80.1811
2024-05-09T09:50:34.572Z,80.5287
2024-05-09T09:51:35.447Z,79.9796
2024-05-09T09:52:35.395Z,79.8322
2024-05-09T09:53:47.208Z,79.0323
2024-05-09T09:54:58.994Z,79.1740
2024-05-09T09:55:58.975Z,78.7585
2024-05-09T09:57:10.636Z,79.3301
2024-05-09T09:58:22.395Z,77.7935
2024-05-09T09:59:34.177Z,77.2002
2024-05-09T10:00:46.328Z,77.5825
2024-05-09T10:01:46.338Z,77.6220
2024-05-09T10:02:58.084Z,77.9820
2024-05-09T10:04:09.812Z,77.1890
2024-05-09T10:05:21.754Z,76.5932
2024-05-09T10:06:21.670Z,75.5651
2024-05-09T10:07:22.508Z,75.7559
2024-05-09T10:08:34.164Z,74.7590
2024-05-09T10:09:45.895Z,75.2125
2024-05-09T10:10:58.668Z,75.1052
2024-05-09T10:12:10.402Z,73.9600
2024-05-09T10:13:22.054Z,74.4119
2024-05-09T10:14:33.702Z,74.6202
2024-05-09T10:15:34.580Z,74.8922
2024-05-09T10:16:46.198Z,74.7580
2024-05-09T10:17:57.908Z,74.1784
2024-05-09T10:19:09.671Z,75.2400
2024-05-09T10:20:27.715Z,75.0696
2024-05-09T10:21:27.923Z,73.0980
2024-05-09T10:22:39.529Z,73.7199
2024-05-09T10:23:51.209Z,73.9267
2024-05-09T10:25:04.821Z,73.2387
2024-05-09T10:26:05.922Z,73.3413
2024-05-09T10:27:06.127Z,73.3016
2024-05-09T10:28:17.788Z,72.9801
2024-05-09T10:29:18.797Z,72.5936
2024-05-09T10:30:35.801Z,72.6953
2024-05-09T10:31:36.246Z,72.4306
2024-05-09T10:32:47.959Z,72.1584
2024-05-09T10:33:59.995Z,72.8868
2024-05-09T10:35:00.082Z,72.1575
2024-05-09T10:36:00.009Z,72.3052
2024-05-09T10:37:11.623Z,72.4404
2024-05-09T10:38:23.202Z,73.5355
2024-05-09T10:39:34.940Z,72.8913
2024-05-09T10:40:46.526Z,71.6833
2024-05-09T10:41:58.189Z,72.1398
2024-05-09T10:43:09.838Z,73.5576
2024-05-09T10:44:21.359Z,73.3321
2024-05-09T10:45:32.957Z,73.2260
2024-05-09T10:46:44.553Z,72.9252
2024-05-09T10:47:56.377Z,74.0042
2024-05-09T10:49:08.186Z,74.2461
2024-05-09T10:50:25.552Z,74.5500
2024-05-09T10:51:25.773Z,75.3344
2024-05-09T10:52:37.352Z,75.1013
2024-05-09T10:53:48.954Z,75.3750
2024-05-09T10:55:01.694Z,75.2298
2024-05-09T10:56:04.041Z,74.4494
2024-05-09T10:57:15.591Z,74.2819
2024-05-09T10:58:27.238Z,73.8849
2024-05-09T10:59:38.950Z,73.9577
2024-05-09T11:00:50.582Z,73.4470
2024-05-09T11:02:02.415Z,73.4730
2024-05-09T11:03:14.043Z,72.7461
2024-05-09T11:04:25.714Z,72.3412
2024-05-09T11:05:37.563Z,73.2845
2024-05-09T11:06:37.498Z,72.4825
2024-05-09T11:07:37.447Z,72.3973
2024-05-09T11:08:49.055Z,72.0167
2024-05-09T11:10:00.801Z,72.3891
2024-05-09T11:11:12.463Z,69.7490
2024-05-09T11:12:24.987Z,70.2630
2024-05-09T11:13:24.984Z,70.6551
2024-05-09T11:14:36.570Z,69.3823
2024-05-09T11:15:48.213Z,70.1859
2024-05-09T11:16:59.970Z,70.1185
2024-05-09T11:18:11.792Z,69.6849
2024-05-09T11:19:11.787Z,70.2947
2024-05-09T11:20:29.444Z,69.6648
2024-05-09T11:21:29.312Z,69.8463
2024-05-09T11:22:41.627Z,70.1343
2024-05-09T11:23:41.834Z,68.8078
2024-05-09T11:24:41.703Z,68.6748
2024-05-09T11:25:53.390Z,67.5207
2024-05-09T11:27:05.031Z,67.1791
2024-05-09T11:28:16.833Z,67.0497
2024-05-09T11:29:19.236Z,66.8971
2024-05-09T11:30:26.559Z,67.5605
2024-05-09T11:31:25.450Z,67.6674
2024-05-09T11:32:25.528Z,68.3207
2024-05-09T11:33:25.492Z,70.2324
2024-05-09T11:34:37.095Z,69.1602
2024-05-09T11:35:48.713Z,69.1503
2024-05-09T11:37:00.433Z,69.2449
2024-05-09T11:38:12.088Z,69.9842
2024-05-09T11:39:23.907Z,70.7464
2024-05-09T11:40:25.998Z,70.1714
2024-05-09T11:41:29.323Z,69.6303
2024-05-09T11:42:40.873Z,69.5226
2024-05-09T11:43:52.617Z,69.6406
2024-05-09T11:45:04.147Z,70.3604
2024-05-09T11:46:15.903Z,68.4571
2024-05-09T11:47:27.588Z,68.3558
2024-05-09T11:48:39.380Z,69.2065
2024-05-09T11:49:39.416Z,69.1234
2024-05-09T11:50:51.064Z,69.6488
2024-05-09T11:52:02.710Z,69.7902
2024-05-09T11:53:14.265Z,69.4321
2024-05-09T11:54:25.821Z,69.2327
2024-05-09T11:55:37.334Z,70.4128
2024-05-09T11:56:48.986Z,70.7663
2024-05-09T11:58:00.611Z,70.5735
2024-05-09T11:59:12.271Z,71.3044
2024-05-09T12:00:33.564Z,71.5434
2024-05-09T12:01:29.938Z,70.7607
2024-05-09T12:02:29.909Z,71.2169
2024-05-09T12:03:41.682Z,71.2685
2024-05-09T12:04:53.424Z,71.7995
2024-05-09T12:05:53.325Z,71.9872
2024-05-09T12:07:05.043Z,70.8637
2024-05-09T12:08:16.684Z,70.5994
2024-05-09T12:09:28.395Z,70.7472
2024-05-09T12:10:40.127Z,70.3098
2024-05-09T12:11:51.919Z,70.4779
2024-05-09T12:13:05.549Z,69.4942
2024-05-09T12:14:06.909Z,69.0016
2024-05-09T12:15:18.578Z,68.4072
2024-05-09T12:16:30.337Z,69.6442
2024-05-09T12:17:31.228Z,69.2415
2024-05-09T12:18:31.178Z,68.5978
2024-05-09T12:19:42.831Z,68.9466
2024-05-09T12:20:54.622Z,70.3761
2024-05-09T12:22:06.286Z,70.2569
2024-05-09T12:23:17.883Z,67.7440
2024-05-09T12:24:29.508Z,68.9881
2024-05-09T12:25:41.237Z,68.9214
2024-05-09T12:26:52.945Z,68.4555
2024-05-09T12:28:04.647Z,68.0929
2024-05-09T12:29:16.280Z,67.7719
2024-05-09T12:30:35.760Z,67.9525
2024-05-09T12:31:34.349Z,67.5764
2024-05-09T12:32:46.531Z,68.6038
2024-05-09T12:33:46.541Z,67.3686
2024-05-09T12:34:46.427Z,66.6123
2024-05-09T12:35:58.158Z,65.5901
2024-05-09T12:37:10.176Z,65.3920
2024-05-09T12:38:10.127Z,64.7239
2024-05-09T12:39:21.784Z,65.0528
2024-05-09T12:40:36.971Z,65.8846
2024-05-09T12:41:39.271Z,66.6752
2024-05-09T12:42:40.002Z,65.7621
2024-05-09T12:43:51.569Z,65.2600
2024-05-09T12:45:03.199Z,66.5965
2024-05-09T12:46:14.923Z,65.8297
2024-05-09T12:47:15.192Z,66.7732
2024-05-09T12:48:27.156Z,65.8521
2024-05-09T12:49:27.164Z,66.6075
2024-05-09T12:50:32.214Z,65.1789
2024-05-09T12:51:33.327Z,65.2003
2024-05-09T12:52:45.096Z,64.5383
2024-05-09T12:53:45.942Z,63.8798
2024-05-09T12:54:57.703Z,63.9292
2024-05-09T12:56:01.843Z,64.0311
2024-05-09T12:57:03.485Z,64.5240
2024-05-09T12:58:15.485Z,64.8061